Time;durP1;ratioP1;P1;durP2;ratioP2;P2;SDS_P1;SDS_P2;PMS_P1;PMS_P2;Temp;Humidity;BMP_temperature;BMP_pressure;BME280_temperature;BME280_humidity;BME280_pressure;Samples;Min_cycle;Max_cycle;Signal;HPM_P1;HPM_P2
2022/05/24 00:00:16;;;;;;;45.17;25.77;;;;;;;19.43;100.00;99964.66;5022309;28;20038;-56
2022/05/24 00:02:42;;;;;;;45.70;25.77;;;;;;;19.49;100.00;99958.13;5027823;28;20320;-52
2022/05/24 00:05:13;;;;;;;45.20;25.53;;;;;;;19.34;100.00;99961.69;5018914;28;20271;-54
2022/05/24 00:07:40;;;;;;;50.53;28.75;;;;;;;18.92;100.00;99966.38;5017718;28;20259;-53
2022/05/24 00:10:09;;;;;;;50.57;28.43;;;;;;;19.12;100.00;99967.44;5021183;28;20101;-54
2022/05/24 00:12:34;;;;;;;48.30;29.23;;;;;;;19.11;100.00;99965.81;5023502;28;20318;-56
2022/05/24 00:17:47;;;;;;;52.23;28.23;;;;;;;18.89;100.00;99956.88;5017435;28;20041;-51
2022/05/24 00:20:13;;;;;;;48.57;28.57;;;;;;;19.04;100.00;99961.50;5026177;28;20332;-54
2022/05/24 00:22:38;;;;;;;50.15;25.65;;;;;;;19.13;100.00;99960.91;5023587;28;20287;-57
2022/05/24 00:25:05;;;;;;;43.17;25.47;;;;;;;18.87;100.00;99952.81;5019123;28;20034;-56
2022/05/24 00:27:31;;;;;;;;;;;;;;;18.72;100.00;99959.88;5027861;28;20050;-55
2022/05/24 00:29:57;;;;;;;35.60;22.07;;;;;;;18.95;100.00;99949.56;5016305;28;19921;-53
2022/05/24 00:32:23;;;;;;;40.92;21.77;;;;;;;18.56;100.00;99947.44;5025102;28;20286;-52
2022/05/24 00:34:48;;;;;;;39.40;19.10;;;;;;;19.12;100.00;99941.16;5022152;28;20067;-55
2022/05/24 00:37:14;;;;;;;33.28;17.08;;;;;;;18.99;100.00;99944.44;5033251;28;20042;-52
2022/05/24 00:39:39;;;;;;;32.33;17.13;;;;;;;18.60;100.00;99945.78;5030343;28;20031;-54
2022/05/24 00:42:15;;;;;;;28.77;15.50;;;;;;;18.32;100.00;99956.06;5032470;28;20093;-57
2022/05/24 00:44:50;;;;;;;35.00;14.73;;;;;;;18.39;100.00;99943.06;5022110;28;20042;-55
2022/05/24 00:47:45;;;;;;;35.60;14.23;;;;;;;18.40;100.00;99943.91;5033323;28;20264;-54
2022/05/24 00:50:19;;;;;;;26.10;14.00;;;;;;;18.25;100.00;99950.91;5033199;28;20279;-56
2022/05/24 00:52:56;;;;;;;27.33;13.13;;;;;;;18.98;100.00;99954.47;5032048;28;20293;-55
2022/05/24 00:55:23;;;;;;;32.53;13.30;;;;;;;18.86;100.00;99954.72;5027805;28;20330;-58
2022/05/24 00:58:13;;;;;;;20.92;12.50;;;;;;;18.99;100.00;99961.50;5015326;28;20268;-55
2022/05/24 01:00:39;;;;;;;27.33;12.17;;;;;;;18.63;100.00;99964.19;5022854;28;20049;-55
2022/05/24 01:03:05;;;;;;;25.67;12.00;;;;;;;18.74;100.00;99955.00;5024563;28;20354;-56
2022/05/24 01:05:32;;;;;;;28.53;12.53;;;;;;;18.97;100.00;99954.69;5030861;28;20037;-54
2022/05/24 01:07:58;;;;;;;29.67;13.20;;;;;;;18.82;100.00;99947.41;5019352;28;20260;-55
2022/05/24 01:10:35;;;;;;;23.15;13.45;;;;;;;18.60;100.00;99943.91;5020340;28;20106;-54
2022/05/24 01:13:07;;;;;;;28.87;15.10;;;;;;;18.74;100.00;99949.59;5019364;28;20038;-55
2022/05/24 01:15:34;;;;;;;30.90;17.30;;;;;;;18.75;100.00;99943.09;5016407;28;20271;-56
2022/05/24 01:18:00;;;;;;;29.20;17.70;;;;;;;18.68;100.00;99941.72;5032791;28;20263;-54
2022/05/24 01:20:27;;;;;;;38.95;19.45;;;;;;;18.43;100.00;99938.75;5032548;28;20297;-57
2022/05/24 01:23:11;;;;;;;40.42;19.20;;;;;;;18.17;100.00;99941.44;5024986;28;20106;-57
2022/05/24 01:25:50;;;;;;;34.83;20.33;;;;;;;18.46;100.00;99937.41;5030269;28;20052;-56
2022/05/24 01:28:41;;;;;;;43.27;20.67;;;;;;;18.05;100.00;99938.19;5015603;28;20264;-56
2022/05/24 01:31:07;;;;;;;39.73;20.47;;;;;;;18.31;100.00;99932.78;5032404;28;20279;-54
2022/05/24 01:36:22;;;;;;;43.50;22.13;;;;;;;18.40;100.00;99944.69;5031945;28;20060;-57
2022/05/24 01:38:50;;;;;;;47.43;21.83;;;;;;;18.16;100.00;99945.22;5032413;28;20263;-55
2022/05/24 01:41:22;;;;;;;41.03;23.00;;;;;;;18.22;100.00;99935.22;5032161;28;20271;-57
2022/05/24 01:43:51;;;;;;;43.30;24.53;;;;;;;18.01;100.00;99943.31;5025465;28;20295;-56
2022/05/24 01:46:21;;;;;;;43.73;21.53;;;;;;;18.05;100.00;99960.63;5032524;28;20283;-56
2022/05/24 01:48:52;;;;;;;40.13;20.77;;;;;;;18.03;100.00;99972.81;5031791;28;20274;-56
2022/05/24 01:51:22;;;;;;;38.17;18.37;;;;;;;18.06;100.00;99977.69;5032153;28;20282;-54
2022/05/24 01:53:53;;;;;;;30.43;18.17;;;;;;;18.11;100.00;99969.56;5032046;28;20259;-57
2022/05/24 01:56:25;;;;;;;32.30;17.17;;;;;;;17.84;100.00;99978.66;5032130;28;20352;-54
2022/05/24 01:58:54;;;;;;;32.57;17.33;;;;;;;17.99;100.00;99972.47;5032212;28;20301;-55
2022/05/24 02:01:42;;;;;;;28.97;15.10;;;;;;;18.14;100.00;99974.44;5031824;28;20344;-57
2022/05/24 02:04:08;;;;;;;29.23;13.63;;;;;;;17.90;100.00;99974.09;5032074;28;20283;-55
2022/05/24 02:06:34;;;;;;;29.80;14.65;;;;;;;18.02;100.00;99976.59;5031689;28;20286;-53
2022/05/24 02:09:02;;;;;;;33.28;14.02;;;;;;;18.16;100.00;99977.69;5032153;28;20046;-56
2022/05/24 02:11:30;;;;;;;26.23;11.80;;;;;;;17.91;100.00;99973.00;5031571;28;20030;-56
2022/05/24 02:14:02;;;;;;;27.77;12.60;;;;;;;17.96;100.00;99958.66;5027174;28;20298;-57
2022/05/24 02:16:32;;;;;;;25.07;12.03;;;;;;;18.05;100.00;99957.91;5031774;28;20267;-57
2022/05/24 02:19:01;;;;;;;25.97;11.07;;;;;;;17.77;100.00;99951.06;5019316;28;20276;-58
2022/05/24 02:21:27;;;;;;;26.23;10.47;;;;;;;18.09;100.00;99947.38;5025216;28;20271;-56
2022/05/24 02:23:52;;;;;;;18.97;10.57;;;;;;;18.11;100.00;99947.91;5012702;28;20314;-56
2022/05/24 02:26:21;;;;;;;22.03;9.67;;;;;;;17.81;100.00;99954.84;5031014;28;20037;-54
2022/05/24 02:28:53;;;;;;;22.17;8.57;;;;;;;17.93;100.00;99962.72;5032000;28;20078;-53
2022/05/24 02:31:22;;;;;;;28.43;11.60;;;;;;;18.13;100.00;99972.81;5007504;28;20268;-57
2022/05/24 02:33:48;;;;;;;20.73;9.03;;;;;;;17.83;100.00;99977.03;4996556;28;20268;-55
2022/05/24 02:36:14;;;;;;;28.13;10.23;;;;;;;17.65;100.00;99972.91;5005684;28;20264;-55
2022/05/24 02:38:41;;;;;;;19.30;9.10;;;;;;;18.02;100.00;99976.59;5001946;28;20023;-59
2022/05/24 02:43:50;;;;;;;20.03;8.70;;;;;;;17.63;100.00;99964.22;5011610;28;20065;-57
2022/05/24 02:46:17;;;;;;;19.05;8.73;;;;;;;17.67;100.00;99953.72;5011870;28;20284;-56
2022/05/24 02:48:43;;;;;;;20.57;9.30;;;;;;;17.49;100.00;99961.19;5010781;28;20038;-56
2022/05/24 02:51:10;;;;;;;23.98;8.77;;;;;;;17.52;100.00;99968.78;4998231;28;20303;-54
2022/05/24 02:53:40;;;;;;;19.73;8.70;;;;;;;17.47;100.00;99976.88;5005062;28;20030;-54
2022/05/24 02:56:06;;;;;;;17.73;9.20;;;;;;;17.25;100.00;99975.13;4994541;28;20272;-53
2022/05/24 02:58:33;;;;;;;23.50;8.00;;;;;;;17.61;100.00;99964.50;5011519;28;20272;-56
2022/05/24 03:01:00;;;;;;;21.23;7.70;;;;;;;17.32;100.00;99964.91;5011373;28;20308;-53
2022/05/24 03:03:26;;;;;;;21.10;7.97;;;;;;;17.38;100.00;99956.84;4995448;28;20280;-56
2022/05/24 03:05:52;;;;;;;17.33;7.70;;;;;;;17.45;100.00;99957.41;5002527;28;20043;-54
2022/05/24 03:11:05;;;;;;;23.10;7.70;;;;;;;17.50;100.00;99970.94;5011556;28;20042;-53
2022/05/24 03:16:16;;;;;;;14.33;6.13;;;;;;;17.66;100.00;99958.31;5010717;28;20268;-56
2022/05/24 03:18:42;;;;;;;19.77;7.20;;;;;;;17.32;100.00;99962.22;5011328;28;20287;-53
2022/05/24 03:21:09;;;;;;;21.13;7.35;;;;;;;17.45;100.00;99974.44;4996227;28;20271;-54
2022/05/24 03:23:35;;;;;;;18.50;6.90;;;;;;;17.46;100.00;99981.47;4998919;28;20061;-56
2022/05/24 03:26:02;;;;;;;19.40;7.73;;;;;;;17.65;100.00;99985.59;5009138;28;20084;-57
2022/05/24 03:28:28;;;;;;;31.27;7.72;;;;;;;17.48;100.00;99992.00;5010846;28;20276;-54
2022/05/24 03:30:54;;;;;;;18.93;7.33;;;;;;;16.80;100.00;99990.75;5003425;28;20063;-56
2022/05/24 03:33:19;;;;;;;17.58;6.88;;;;;;;17.16;100.00;99982.09;4995768;28;20272;-54
2022/05/24 03:35:45;;;;;;;10.93;5.70;;;;;;;17.00;100.00;99987.41;5010846;28;20042;-57
2022/05/24 03:38:10;;;;;;;19.02;5.68;;;;;;;17.00;100.00;99986.59;5010579;28;20062;-57
2022/05/24 03:40:36;;;;;;;18.08;5.75;;;;;;;17.04;100.00;99977.69;5010641;28;20065;-57
2022/05/24 03:43:03;;;;;;;16.13;5.95;;;;;;;17.06;100.00;99980.94;5011193;28;20102;-57
2022/05/24 03:45:29;;;;;;;21.87;6.37;;;;;;;17.22;100.00;99983.75;5010280;28;20034;-58
2022/05/24 03:47:55;;;;;;;19.73;5.43;;;;;;;17.04;100.00;99983.09;4994526;28;20268;-55
2022/05/24 03:50:22;;;;;;;18.60;6.07;;;;;;;17.39;100.00;99985.47;5010876;28;20068;-56
2022/05/24 03:52:48;;;;;;;22.50;6.50;;;;;;;17.40;100.00;99970.91;5010987;28;20026;-56
2022/05/24 03:55:15;;;;;;;20.35;7.18;;;;;;;17.02;100.00;99973.66;5011124;28;20326;-55
2022/05/24 04:00:26;;;;;;;23.27;6.73;;;;;;;17.08;100.00;99977.19;5014001;28;20026;-56
2022/05/24 04:02:51;;;;;;;17.37;6.27;;;;;;;16.98;100.00;99984.16;5014145;28;20288;-56
2022/05/24 04:05:17;;;;;;;17.47;7.07;;;;;;;17.54;100.00;99982.88;5014094;28;20284;-56
2022/05/24 04:07:43;;;;;;;15.23;6.95;;;;;;;16.88;100.00;99992.16;4997924;28;20043;-53
2022/05/24 04:10:11;;;;;;;29.83;7.50;;;;;;;17.08;100.00;99978.00;5014318;28;20038;-55
2022/05/24 04:12:37;;;;;;;17.33;6.90;;;;;;;17.03;100.00;99991.47;5011924;28;20034;-56
2022/05/24 04:15:03;;;;;;;15.95;7.18;;;;;;;16.96;100.00;100013.28;5004054;28;20295;-55
2022/05/24 04:17:28;;;;;;;21.70;8.25;;;;;;;17.32;100.00;100010.03;5013585;28;20053;-56
2022/05/24 04:19:54;;;;;;;20.38;8.68;;;;;;;17.12;100.00;100013.44;5009189;28;20026;-54
2022/05/24 04:22:20;;;;;;;23.35;9.65;;;;;;;17.13;100.00;100017.75;5009177;28;20039;-57
2022/05/24 04:24:46;;;;;;;21.60;8.87;;;;;;;17.18;100.00;100028.59;5009375;28;20077;-57
2022/05/24 04:27:12;;;;;;;;;;;;;;;17.31;100.00;100017.34;5010422;28;20030;-57
2022/05/24 04:29:39;;;;;;;37.67;8.33;;;;;;;17.14;100.00;100032.88;5008873;28;19993;-57
2022/05/24 04:32:07;;;;;;;16.90;8.63;;;;;;;17.44;100.00;100037.69;5029554;28;20049;-57
2022/05/24 04:34:32;;;;;;;25.43;8.97;;;;;;;17.49;100.00;100045.81;5030339;28;20294;-56
2022/05/24 04:36:58;;;;;;;29.57;9.70;;;;;;;17.11;100.00;100036.91;5031835;28;20327;-56
2022/05/24 04:39:24;;;;;;;24.45;9.05;;;;;;;17.32;100.00;100018.97;5026725;28;20034;-57
2022/05/24 04:44:34;;;;;;;25.33;10.13;;;;;;;17.37;100.00;100004.66;5029002;28;20050;-56
2022/05/24 04:47:09;;;;;;;21.30;9.27;;;;;;;17.40;100.00;100019.53;5030699;28;20305;-55
2022/05/24 04:49:41;;;;;;;21.93;10.30;;;;;;;17.31;100.00;100020.03;5029392;28;20038;-55
2022/05/24 04:52:12;;;;;;;23.30;9.77;;;;;;;17.23;100.00;100036.72;5030820;28;20255;-56
2022/05/24 04:54:39;;;;;;;22.93;10.20;;;;;;;17.31;100.00;100054.34;5020280;28;20347;-57
2022/05/24 04:57:07;;;;;;;23.83;11.07;;;;;;;17.39;100.00;100061.94;5009783;28;20296;-58
2022/05/24 04:59:34;;;;;;;22.90;10.20;;;;;;;17.33;100.00;100052.19;5029250;28;20267;-56
2022/05/24 05:01:59;;;;;;;26.77;10.80;;;;;;;17.41;100.00;100032.78;5027913;28;20279;-55
2022/05/24 05:04:25;;;;;;;20.38;11.00;;;;;;;17.57;100.00;100033.69;5030157;28;20065;-58
2022/05/24 05:06:51;;;;;;;19.58;9.70;;;;;;;17.64;100.00;100036.16;5031018;28;20045;-53
2022/05/24 05:09:17;;;;;;;19.05;9.07;;;;;;;17.43;100.00;100041.47;5032828;28;20041;-56
2022/05/24 05:11:43;;;;;;;22.93;10.37;;;;;;;17.57;100.00;100051.78;5028098;28;20045;-56
2022/05/24 05:14:09;;;;;;;20.03;9.27;;;;;;;17.65;100.00;100066.72;5015998;28;20272;-56
2022/05/24 05:16:38;;;;;;;15.32;8.32;;;;;;;17.56;100.00;100075.31;5031977;28;20033;-52
2022/05/24 05:19:05;;;;;;;21.47;9.17;;;;;;;17.57;100.00;100079.66;5032608;28;20030;-56
2022/05/24 05:21:33;;;;;;;18.77;8.73;;;;;;;17.14;100.00;100074.22;5027051;28;20298;-56
2022/05/24 05:23:59;;;;;;;22.00;9.23;;;;;;;17.35;100.00;100082.47;5017494;28;20283;-55
2022/05/24 05:26:25;;;;;;;18.30;9.57;;;;;;;17.24;100.00;100080.78;5026605;28;20270;-54
2022/05/24 05:28:51;;;;;;;19.93;9.40;;;;;;;17.45;100.00;100089.84;5032537;28;20279;-57
2022/05/24 05:31:19;;;;;;;19.42;10.07;;;;;;;17.17;100.00;100098.00;5031710;28;20054;-56
2022/05/24 05:33:45;;;;;;;23.90;10.93;;;;;;;17.34;100.00;100111.41;5032170;28;20098;-55
2022/05/24 05:36:11;;;;;;;23.92;9.40;;;;;;;17.23;100.00;100084.56;5028328;28;20260;-57
2022/05/24 05:38:37;;;;;;;28.55;10.82;;;;;;;17.36;100.00;100096.81;5020378;28;20048;-54
2022/05/24 05:41:04;;;;;;;17.85;8.68;;;;;;;17.43;100.00;100097.41;5030489;28;20033;-56
2022/05/24 05:43:30;;;;;;;21.00;10.90;;;;;;;17.36;100.00;100094.09;5015865;28;20046;-57
2022/05/24 05:45:58;;;;;;;20.83;9.13;;;;;;;17.27;100.00;100094.56;5022257;28;20348;-56
2022/05/24 05:48:25;;;;;;;19.37;9.83;;;;;;;17.19;100.00;100101.28;5024689;28;20283;-55
2022/05/24 05:50:50;;;;;;;26.80;9.75;;;;;;;17.22;100.00;100102.63;5020142;28;20271;-54
2022/05/24 05:53:17;;;;;;;23.23;9.30;;;;;;;17.44;100.00;100107.97;5031677;28;20041;-56
2022/05/24 05:55:42;;;;;;;18.53;9.37;;;;;;;17.28;100.00;100106.22;5029423;28;20093;-54
2022/05/24 05:58:09;;;;;;;17.57;8.37;;;;;;;17.17;100.00;100108.00;5024525;28;20290;-57
2022/05/24 06:00:38;;;;;;;17.08;8.43;;;;;;;17.23;100.00;100106.97;5011247;28;20052;-56
2022/05/24 06:03:04;;;;;;;12.17;7.80;;;;;;;17.22;100.00;100109.94;5029437;28;20040;-54
2022/05/24 06:05:30;;;;;;;21.58;8.18;;;;;;;17.36;100.00;100110.31;5026092;28;20545;-53
2022/05/24 06:07:56;;;;;;;18.77;9.82;;;;;;;17.17;100.00;100116.13;5029238;28;20068;-56
2022/05/24 06:10:22;;;;;;;16.93;7.67;;;;;;;17.12;100.00;100124.19;5029023;28;20042;-57
2022/05/24 06:12:48;;;;;;;22.85;8.73;;;;;;;16.87;100.00;100118.25;5029235;28;20270;-54
2022/05/24 06:15:14;;;;;;;21.63;7.85;;;;;;;17.22;100.00;100131.56;5025311;28;20033;-53
2022/05/24 06:17:45;;;;;;;20.25;8.95;;;;;;;17.15;100.00;100135.28;5031012;28;20059;-57
2022/05/24 06:20:15;;;;;;;21.17;8.57;;;;;;;17.10;100.00;100124.44;5031446;28;20026;-54
2022/05/24 06:22:41;;;;;;;19.83;8.10;;;;;;;17.24;100.00;100143.72;5031807;28;20284;-56
2022/05/24 06:25:08;;;;;;;14.65;8.95;;;;;;;17.38;100.00;100144.09;5031629;28;20268;-56
2022/05/24 06:27:33;;;;;;;17.38;8.20;;;;;;;17.49;100.00;100155.81;5031242;28;20093;-54
2022/05/24 06:29:59;;;;;;;16.20;9.13;;;;;;;17.11;100.00;100155.78;5027319;28;20046;-55
2022/05/24 06:32:25;;;;;;;20.77;9.57;;;;;;;17.03;100.00;100162.44;5029112;28;20022;-55
2022/05/24 06:34:52;;;;;;;20.77;8.68;;;;;;;17.23;100.00;100162.91;5031055;28;20061;-55
2022/05/24 06:37:19;;;;;;;19.23;9.33;;;;;;;17.86;100.00;100163.13;5031267;28;20037;-53
2022/05/24 06:39:46;;;;;;;15.20;7.73;;;;;;;17.81;100.00;100167.66;5029708;28;20278;-58
2022/05/24 06:42:11;;;;;;;22.13;7.53;;;;;;;18.23;100.00;100166.88;5031334;28;20307;-56
2022/05/24 06:44:38;;;;;;;12.35;7.53;;;;;;;18.27;100.00;100167.16;5031456;28;20041;-57
2022/05/24 06:47:04;;;;;;;14.90;6.88;;;;;;;18.16;100.00;100177.13;5023707;28;20049;-57
2022/05/24 06:49:30;;;;;;;15.82;7.07;;;;;;;18.17;100.00;100171.44;5030685;28;20035;-54
2022/05/24 06:51:55;;;;;;;18.67;7.07;;;;;;;18.13;100.00;100172.25;5031319;28;20045;-57
2022/05/24 06:54:21;;;;;;;13.80;6.53;;;;;;;18.57;100.00;100174.59;5031036;28;20059;-57
2022/05/24 06:56:48;;;;;;;12.73;5.80;;;;;;;18.40;100.00;100180.19;5030727;28;20038;-55
2022/05/24 07:04:43;;;;;;;12.40;5.80;;;;;;;17.68;100.00;100171.63;5028371;28;20275;-56
2022/05/24 07:07:09;;;;;;;12.55;5.50;;;;;;;17.69;100.00;100198.44;5029426;28;21101;-57
2022/05/24 07:09:34;;;;;;;15.48;5.43;;;;;;;18.68;100.00;100201.72;5027056;28;20041;-57
2022/05/24 07:12:01;;;;;;;10.55;6.30;;;;;;;18.69;100.00;100190.63;5029729;28;20036;-58
2022/05/24 07:14:26;;;;;;;12.15;5.90;;;;;;;18.84;100.00;100202.56;5029922;28;20057;-58
2022/05/24 07:16:52;;;;;;;12.75;5.57;;;;;;;18.86;100.00;100195.81;5017786;28;20096;-56
2022/05/24 07:19:18;;;;;;;10.30;4.85;;;;;;;18.87;100.00;100218.28;5015617;28;20041;-57
2022/05/24 07:21:47;;;;;;;13.97;6.37;;;;;;;18.41;100.00;100227.03;5026325;28;20075;-55
2022/05/24 07:24:12;;;;;;;13.07;5.13;;;;;;;18.33;100.00;100225.66;5016019;28;20287;-56
2022/05/24 07:26:38;;;;;;;7.23;4.73;;;;;;;18.59;100.00;100240.13;5020942;28;20280;-55
2022/05/24 07:29:04;;;;;;;14.48;4.82;;;;;;;18.20;100.00;100222.31;5021918;28;20041;-56
2022/05/24 07:31:31;;;;;;;17.35;4.47;;;;;;;18.97;100.00;100225.63;5014074;28;20085;-57
2022/05/24 07:33:59;;;;;;;21.53;9.60;;;;;;;18.81;100.00;100219.34;5015240;28;20030;-55
2022/05/24 07:36:25;;;;;;;14.00;6.90;;;;;;;19.18;100.00;100230.03;5033362;28;20275;-55
2022/05/24 07:38:51;;;;;;;12.52;4.78;;;;;;;19.48;100.00;100238.50;5023431;28;20283;-57
2022/05/24 07:46:46;;;;;;;14.63;6.10;;;;;;;19.01;100.00;100227.56;5018743;28;20304;-55
2022/05/24 07:49:12;;;;;;;14.07;5.60;;;;;;;19.03;100.00;100233.53;5025043;28;20283;-52
2022/05/24 07:51:38;;;;;;;7.30;4.05;;;;;;;19.15;100.00;100252.25;5030937;28;20037;-52
2022/05/24 07:54:03;;;;;;;12.70;3.93;;;;;;;19.66;100.00;100231.72;5015991;28;20057;-56
2022/05/24 07:56:29;;;;;;;5.37;3.13;;;;;;;19.94;100.00;100253.16;5027905;28;20287;-51
2022/05/24 07:58:54;;;;;;;7.43;2.72;;;;;;;19.68;100.00;100239.59;5021514;28;20293;-53
2022/05/24 08:01:20;;;;;;;9.00;4.23;;;;;;;19.79;100.00;100252.06;5026772;28;20062;-53
2022/05/24 08:03:46;;;;;;;6.17;3.50;;;;;;;19.71;100.00;100258.03;5015555;28;20284;-53
2022/05/24 08:06:12;;;;;;;5.60;2.60;;;;;;;18.89;100.00;100254.03;5027618;28;20101;-56
2022/05/24 08:08:38;;;;;;;8.23;3.50;;;;;;;18.95;100.00;100263.84;5007677;28;20045;-55
2022/05/24 08:11:04;;;;;;;9.45;3.00;;;;;;;18.90;100.00;100247.53;5032218;28;20094;-52
2022/05/24 08:13:30;;;;;;;14.23;3.53;;;;;;;18.55;100.00;100257.16;5027621;28;20034;-53
2022/05/24 08:15:56;;;;;;;16.80;4.90;;;;;;;18.61;100.00;100261.53;5024626;28;20356;-53
2022/05/24 08:18:24;;;;;;;8.90;5.57;;;;;;;18.76;100.00;100261.59;5021968;28;20045;-55
2022/05/24 08:20:50;;;;;;;10.13;4.47;;;;;;;19.06;100.00;100251.16;5018893;28;20034;-56
2022/05/24 08:23:18;;;;;;;10.70;4.28;;;;;;;18.86;100.00;100260.81;5019237;28;20299;-56
2022/05/24 08:25:44;;;;;;;11.77;3.60;;;;;;;19.14;100.00;100257.94;5021392;28;20060;-54
2022/05/24 08:28:10;;;;;;;8.77;3.47;;;;;;;19.45;100.00;100266.94;5025565;28;20268;-55
2022/05/24 08:30:37;;;;;;;8.32;3.28;;;;;;;19.15;100.00;100270.44;5024721;28;20287;-55
2022/05/24 08:33:06;;;;;;;14.83;3.63;;;;;;;19.31;100.00;100266.66;5020592;28;20042;-55
2022/05/24 08:35:35;;;;;;;4.93;2.70;;;;;;;19.68;100.00;100280.28;5026334;28;20276;-56
2022/05/24 08:38:02;;;;;;;7.67;2.63;;;;;;;19.82;100.00;100284.06;5027154;28;20290;-53
2022/05/24 08:40:28;;;;;;;6.33;2.13;;;;;;;19.47;100.00;100278.34;5011834;28;20283;-54
2022/05/24 08:43:28;;;;;;;8.73;1.88;;;;;;;19.50;100.00;100282.41;5022266;28;20313;-54
2022/05/24 08:48:47;;;;;;;6.35;2.30;;;;;;;19.96;100.00;100294.41;5023699;28;20300;-57
2022/05/24 08:51:48;;;;;;;9.93;2.40;;;;;;;19.59;100.00;100293.56;5020925;28;20041;-50
2022/05/24 08:54:20;;;;;;;7.93;2.87;;;;;;;19.45;100.00;100312.25;4964936;29;20040;-56
2022/05/24 08:56:57;;;;;;;6.47;3.00;;;;;;;19.51;100.00;100313.88;5022778;28;20056;-53
2022/05/24 08:59:34;;;;;;;7.30;2.77;;;;;;;19.80;100.00;100305.22;5018116;28;20272;-53
2022/05/24 09:02:01;;;;;;;;;;;;;;;19.45;100.00;100323.88;5028503;28;20275;-51
2022/05/24 09:04:28;;;;;;;12.80;3.20;;;;;;;19.42;100.00;100315.50;5018679;28;19917;-52
2022/05/24 09:07:08;;;;;;;6.07;3.07;;;;;;;18.98;100.00;100314.81;5032613;28;20041;-52
2022/05/24 09:09:36;;;;;;;13.23;3.47;;;;;;;18.55;100.00;100335.69;5016831;28;20276;-57
2022/05/24 09:12:30;;;;;;;7.97;3.47;;;;;;;18.54;100.00;100334.06;5005383;28;20279;-54
2022/05/24 09:15:17;;;;;;;7.70;3.17;;;;;;;18.95;100.00;100325.31;5021582;28;20267;-55
2022/05/24 09:17:43;;;;;;;5.20;3.15;;;;;;;19.04;100.00;100337.34;5025985;28;20286;-55
2022/05/24 09:20:12;;;;;;;5.07;2.65;;;;;;;19.06;100.00;100344.09;5027631;28;20039;-56
2022/05/24 09:22:37;;;;;;;6.73;2.40;;;;;;;19.03;100.00;100349.22;5014991;28;20041;-52
2022/05/24 09:25:04;;;;;;;7.65;2.50;;;;;;;19.34;100.00;100352.06;5020920;28;20372;-55
2022/05/24 09:27:49;;;;;;;;;;;;;;;20.08;100.00;100349.25;5017922;28;20065;-53
2022/05/24 09:30:28;;;;;;;3.50;2.17;;;;;;;19.78;100.00;100357.06;5021773;28;19921;-54
2022/05/24 09:33:22;;;;;;;6.23;3.37;;;;;;;20.30;100.00;100353.59;5022460;28;20268;-56
2022/05/24 09:35:51;;;;;;;6.17;2.27;;;;;;;20.05;100.00;100371.47;5014662;28;20284;-54
2022/05/24 09:38:22;;;;;;;4.63;2.57;;;;;;;20.11;100.00;100377.72;5025712;28;20038;-55
2022/05/24 09:41:04;;;;;;;16.27;3.50;;;;;;;19.37;100.00;100372.41;5019652;28;20052;-53
2022/05/24 09:43:33;;;;;;;27.53;4.33;;;;;;;19.22;100.00;100389.41;5027842;28;20037;-51
2022/05/24 09:46:08;;;;;;;8.37;3.17;;;;;;;19.03;100.00;100387.16;5015116;28;20272;-53
2022/05/24 09:48:40;;;;;;;8.23;3.43;;;;;;;18.45;100.00;100404.13;5032067;28;20293;-50
2022/05/24 09:51:11;;;;;;;8.30;4.73;;;;;;;17.80;100.00;100402.16;5032064;28;20279;-51
2022/05/24 09:53:51;;;;;;;11.40;5.73;;;;;;;18.05;100.00;100404.31;5031833;28;20282;-51
2022/05/24 09:56:22;;;;;;;11.03;7.20;;;;;;;18.80;100.00;100401.91;5026155;28;20263;-52
2022/05/24 09:59:01;;;;;;;14.27;8.73;;;;;;;20.27;100.00;100405.69;5018826;28;20264;-50
2022/05/24 10:01:35;;;;;;;9.43;6.83;;;;;;;21.81;100.00;100408.31;5031538;28;20272;-53
2022/05/24 10:04:12;;;;;;;5.77;3.87;;;;;;;21.20;100.00;100416.44;5031261;28;20053;-52
2022/05/24 10:06:41;;;;;;;5.25;2.50;;;;;;;21.85;100.00;100420.25;5031396;28;20075;-49
2022/05/24 10:09:19;;;;;;;3.83;1.90;;;;;;;20.35;100.00;100422.25;5031818;28;20046;-52
2022/05/24 10:11:55;;;;;;;5.63;1.77;;;;;;;19.59;100.00;100426.44;5030409;28;20036;-51
2022/05/24 10:14:41;;;;;;;3.17;1.73;;;;;;;18.64;100.00;100434.31;5013856;28;20060;-53
2022/05/24 10:17:24;;;;;;;4.77;1.40;;;;;;;18.08;100.00;100440.88;5031530;28;20034;-51
2022/05/24 10:20:19;;;;;;;3.37;1.70;;;;;;;19.19;100.00;100453.91;5029317;28;20302;-54
2022/05/24 10:23:15;;;;;;;4.70;1.70;;;;;;;19.58;100.00;100444.59;5019456;28;20316;-54
2022/05/24 10:25:52;;;;;;;13.93;2.30;;;;;;;21.17;100.00;100445.00;5015016;28;20427;-51
2022/05/24 10:28:43;;;;;;;3.50;2.00;;;;;;;21.44;100.00;100459.31;5030877;28;20316;-50
2022/05/24 10:31:30;;;;;;;2.77;1.20;;;;;;;22.48;100.00;100468.56;5031480;28;20079;-51
2022/05/24 10:40:07;;;;;;;4.83;1.40;;;;;;;24.45;100.00;100479.94;5027856;28;20129;-52
2022/05/24 10:42:52;;;;;;;5.80;1.73;;;;;;;22.91;100.00;100497.09;5019889;28;20101;-55
2022/05/24 10:45:23;;;;;;;5.23;1.37;;;;;;;21.53;100.00;100492.19;5018231;28;20232;-55
2022/05/24 10:48:04;;;;;;;3.57;1.70;;;;;;;22.24;100.00;100487.50;5021128;28;20041;-53
2022/05/24 10:50:48;;;;;;;5.67;1.67;;;;;;;21.13;100.00;100492.06;5024758;28;20040;-53
2022/05/24 10:53:34;;;;;;;6.17;2.23;;;;;;;21.42;100.00;100489.53;5018153;28;20040;-51
2022/05/24 10:56:09;;;;;;;6.63;1.83;;;;;;;21.23;100.00;100480.34;4998645;28;20037;-52
2022/05/24 10:58:40;;;;;;;5.60;2.10;;;;;;;21.35;100.00;100481.66;5030904;28;20514;-49
2022/05/24 11:01:28;;;;;;;6.67;1.87;;;;;;;20.41;100.00;100482.00;5019438;28;20039;-56
2022/05/24 11:04:01;;;;;;;6.63;2.20;;;;;;;19.96;100.00;100481.66;5024268;28;20045;-50
2022/05/24 11:06:40;;;;;;;5.07;2.03;;;;;;;20.31;100.00;100488.25;5014034;28;20042;-55
2022/05/24 11:09:18;;;;;;;3.40;1.50;;;;;;;19.75;100.00;100497.84;5030108;28;20053;-53
2022/05/24 11:12:02;;;;;;;9.03;1.90;;;;;;;20.51;100.00;100498.31;5029842;28;20380;-52
2022/05/24 11:14:28;;;;;;;37.87;3.50;;;;;;;19.91;100.00;100507.69;5011791;28;20057;-50
2022/05/24 11:16:54;;;;;;;14.77;2.70;;;;;;;17.71;100.00;100507.25;5022024;28;20272;-50
2022/05/24 11:19:25;;;;;;;6.30;2.60;;;;;;;18.28;100.00;100498.97;5024936;28;20115;-54
2022/05/24 11:22:03;;;;;;;7.77;2.53;;;;;;;17.87;100.00;100499.31;5028809;28;20278;-52
2022/05/24 11:24:45;;;;;;;8.03;3.00;;;;;;;18.46;100.00;100495.09;5013563;28;20287;-52
2022/05/24 11:27:16;;;;;;;11.60;4.20;;;;;;;20.80;100.00;100497.00;5030698;28;20271;-53
2022/05/24 11:29:53;;;;;;;10.37;3.80;;;;;;;22.77;100.00;100494.22;5030398;28;20276;-52
2022/05/24 11:32:37;;;;;;;9.70;3.70;;;;;;;23.14;100.00;100498.22;5030435;28;20049;-50
2022/05/24 11:35:11;;;;;;;7.40;1.90;;;;;;;23.01;100.00;100497.00;5021081;28;20073;-55
2022/05/24 11:37:40;;;;;;;3.97;1.43;;;;;;;22.10;100.00;100503.66;5030725;28;20132;-50
2022/05/24 11:40:29;;;;;;;6.80;1.57;;;;;;;22.33;100.00;100509.50;5013587;28;20033;-53
2022/05/24 11:42:56;;;;;;;1.57;1.10;;;;;;;21.33;100.00;100507.50;5030299;28;20041;-55
2022/05/24 11:45:28;;;;;;;3.80;1.70;;;;;;;20.89;100.00;100504.31;5030475;28;20064;-53
2022/05/24 11:47:54;;;;;;;4.83;2.43;;;;;;;21.61;100.00;100525.09;5030462;28;20048;-53
2022/05/24 11:50:32;;;;;;;4.72;2.10;;;;;;;22.30;100.00;100520.97;5030094;28;20038;-52
2022/05/24 11:53:02;;;;;;;3.83;1.93;;;;;;;24.01;100.00;100531.09;5013577;28;20045;-54
2022/05/24 11:55:48;;;;;;;3.90;1.90;;;;;;;24.53;100.00;100529.53;5008578;28;20039;-52
2022/05/24 11:58:20;;;;;;;3.80;1.27;;;;;;;24.83;100.00;100535.66;5025238;28;20043;-55
2022/05/24 12:01:09;;;;;;;1.67;0.67;;;;;;;22.84;100.00;100542.97;5014471;28;20074;-54
2022/05/24 12:09:20;;;;;;;2.47;0.80;;;;;;;24.99;100.00;100556.16;5022906;28;20034;-53
2022/05/24 12:11:46;;;;;;;2.43;1.00;;;;;;;25.92;100.00;100561.81;5029792;28;20064;-53